createdAt,value
2023-04-15T00:02:16.324Z,3.30
2023-04-15T00:05:04.008Z,2.90
2023-04-15T00:07:50.390Z,3.40
2023-04-15T00:10:37.435Z,3.10
2023-04-15T00:13:24.472Z,3.60
2023-04-15T00:16:11.847Z,3.50
2023-04-15T00:18:59.194Z,3.00
2023-04-15T00:21:46.112Z,4.70
2023-04-15T00:24:32.823Z,3.20
2023-04-15T00:27:20.665Z,3.10
2023-04-15T00:30:08.284Z,3.30
2023-04-15T00:32:55.564Z,2.90
2023-04-15T00:35:43.251Z,3.10
2023-04-15T00:38:30.059Z,2.70
2023-04-15T00:41:18.096Z,3.00
2023-04-15T00:44:06.953Z,2.80
2023-04-15T00:46:54.380Z,2.70
2023-04-15T00:49:40.977Z,2.70
2023-04-15T00:52:28.116Z,3.10
2023-04-15T00:55:15.526Z,3.30
2023-04-15T00:58:02.251Z,3.10
2023-04-15T01:00:49.657Z,3.30
2023-04-15T01:03:36.715Z,3.30
2023-04-15T01:06:24.408Z,2.60
2023-04-15T01:09:12.007Z,2.90
2023-04-15T01:12:00.091Z,3.40
2023-04-15T01:14:46.883Z,3.90
2023-04-15T01:17:34.575Z,3.30
2023-04-15T01:20:22.353Z,2.60
2023-04-15T01:23:10.487Z,2.30
2023-04-15T01:25:59.059Z,3.20
2023-04-15T01:28:46.161Z,2.50
2023-04-15T01:31:33.159Z,2.70
2023-04-15T01:34:21.226Z,3.10
2023-04-15T01:37:08.136Z,3.40
2023-04-15T01:39:55.145Z,2.80
2023-04-15T01:42:42.984Z,3.20
2023-04-15T01:45:30.078Z,2.90
2023-04-15T01:48:17.043Z,3.70
2023-04-15T01:51:04.002Z,3.50
2023-04-15T01:53:51.259Z,3.00
2023-04-15T01:56:38.971Z,2.40
2023-04-15T01:59:25.927Z,2.90
2023-04-15T02:02:13.140Z,2.60
2023-04-15T02:04:59.924Z,3.00
2023-04-15T02:07:46.968Z,2.40
2023-04-15T02:10:34.069Z,2.90
2023-04-15T02:13:21.296Z,2.90
2023-04-15T02:16:19.813Z,2.70
2023-04-15T02:19:06.586Z,2.40
2023-04-15T02:21:53.295Z,3.10
2023-04-15T02:24:40.370Z,3.10
2023-04-15T02:27:28.453Z,2.90
2023-04-15T02:30:15.413Z,2.90
2023-04-15T02:33:03.346Z,2.60
2023-04-15T02:35:51.044Z,2.60
2023-04-15T02:38:38.783Z,2.70
2023-04-15T02:41:28.647Z,2.80
2023-04-15T02:44:15.896Z,3.10
2023-04-15T02:47:05.166Z,3.40
2023-04-15T02:49:52.779Z,2.60
2023-04-15T02:52:41.766Z,3.40
2023-04-15T02:55:29.473Z,3.50
2023-04-15T02:58:16.587Z,3.10
2023-04-15T03:01:03.539Z,3.90
2023-04-15T03:03:50.278Z,2.40
2023-04-15T03:06:37.638Z,3.10
2023-04-15T03:09:24.856Z,3.20
2023-04-15T03:12:12.103Z,3.30
2023-04-15T03:14:58.904Z,2.60
2023-04-15T03:17:52.491Z,3.10
2023-04-15T03:20:39.723Z,2.80
2023-04-15T03:23:27.203Z,4.00
2023-04-15T03:26:32.989Z,3.70
2023-04-15T03:29:22.434Z,2.90
2023-04-15T03:32:09.675Z,3.20
2023-04-15T03:34:56.514Z,4.50
2023-04-15T03:37:43.408Z,3.10
2023-04-15T03:40:30.729Z,3.40
2023-04-15T03:43:17.925Z,4.10
2023-04-15T03:46:05.465Z,2.70
2023-04-15T03:48:52.473Z,3.10
2023-04-15T03:51:39.484Z,3.70
2023-04-15T03:54:26.636Z,4.00
2023-04-15T03:57:13.653Z,2.70
2023-04-15T04:00:00.626Z,3.30
2023-04-15T04:02:47.703Z,3.30
2023-04-15T04:05:37.332Z,3.00
2023-04-15T04:08:24.231Z,3.40
2023-04-15T04:11:11.463Z,3.50
2023-04-15T04:13:59.194Z,2.70
2023-04-15T04:16:46.631Z,3.00
2023-04-15T04:19:33.747Z,2.90
2023-04-15T04:22:27.308Z,3.80
2023-04-15T04:25:14.681Z,2.90
2023-04-15T04:28:01.947Z,2.90
2023-04-15T04:30:48.860Z,3.00
2023-04-15T04:33:36.318Z,3.30
2023-04-15T04:36:23.223Z,2.80
2023-04-15T04:39:10.118Z,2.70
2023-04-15T04:41:57.656Z,3.70
2023-04-15T04:44:45.268Z,3.50
2023-04-15T04:47:32.319Z,2.60
2023-04-15T04:50:19.208Z,3.30
2023-04-15T04:53:06.326Z,3.60
2023-04-15T04:55:53.338Z,3.20
2023-04-15T04:58:40.362Z,2.90
2023-04-15T05:01:27.933Z,3.30
2023-04-15T05:04:15.311Z,3.20
2023-04-15T05:07:02.334Z,2.70
2023-04-15T05:09:48.909Z,3.00
2023-04-15T05:12:37.588Z,3.10
2023-04-15T05:15:24.092Z,2.70
2023-04-15T05:18:11.113Z,4.00
2023-04-15T05:20:59.252Z,3.30
2023-04-15T05:23:45.961Z,3.80
2023-04-15T05:26:32.873Z,3.30
2023-04-15T05:29:20.303Z,2.90
2023-04-15T05:32:07.261Z,3.60
2023-04-15T05:34:54.330Z,2.90
2023-04-15T05:37:41.654Z,2.90
2023-04-15T05:40:28.386Z,3.00
2023-04-15T05:43:15.270Z,3.50
2023-04-15T05:46:02.394Z,3.00
2023-04-15T05:48:49.014Z,3.30
2023-04-15T05:51:36.315Z,3.00
2023-04-15T05:54:23.448Z,3.10
2023-04-15T05:57:10.361Z,3.10
2023-04-15T05:59:58.093Z,3.30
2023-04-15T06:02:45.576Z,3.90
2023-04-15T06:05:33.013Z,3.40
2023-04-15T06:08:19.912Z,3.90
2023-04-15T06:11:07.503Z,3.10
2023-04-15T06:13:54.393Z,3.10
2023-04-15T06:16:41.637Z,2.90
2023-04-15T06:19:28.543Z,3.20
2023-04-15T06:22:15.874Z,2.80
2023-04-15T06:25:02.811Z,2.90
2023-04-15T06:27:49.590Z,3.30
2023-04-15T06:30:37.111Z,4.30
2023-04-15T06:33:23.920Z,3.80
2023-04-15T06:36:11.138Z,3.60
2023-04-15T06:38:58.264Z,3.80
2023-04-15T06:41:45.476Z,3.80
2023-04-15T06:44:34.040Z,3.50
2023-04-15T06:47:21.077Z,3.20
2023-04-15T06:50:09.376Z,3.10
2023-04-15T06:52:56.512Z,3.50
2023-04-15T06:55:44.848Z,3.50
2023-04-15T06:58:31.664Z,3.10
2023-04-15T07:01:18.704Z,3.20
2023-04-15T07:04:06.399Z,3.50
2023-04-15T07:06:54.116Z,3.40
2023-04-15T07:09:41.065Z,2.60
2023-04-15T07:12:27.992Z,3.30
2023-04-15T07:15:15.151Z,3.70
2023-04-15T07:18:02.047Z,3.20
2023-04-15T07:20:49.131Z,3.50
2023-04-15T07:23:36.244Z,3.40
2023-04-15T07:26:23.779Z,3.80
2023-04-15T07:29:10.751Z,3.70
2023-04-15T07:31:57.490Z,3.50
2023-04-15T07:34:44.976Z,3.30
2023-04-15T07:37:31.735Z,3.50
2023-04-15T07:40:18.759Z,3.00
2023-04-15T07:43:05.872Z,3.00
2023-04-15T07:45:53.307Z,3.10
2023-04-15T07:48:40.190Z,3.30
2023-04-15T07:51:26.821Z,3.40
2023-04-15T07:54:13.734Z,4.20
2023-04-15T07:57:00.681Z,3.30
2023-04-15T07:59:47.534Z,3.10
2023-04-15T08:02:36.814Z,3.30
2023-04-15T08:05:26.009Z,3.60
2023-04-15T08:08:13.114Z,3.50
2023-04-15T08:10:59.821Z,3.30
2023-04-15T08:13:47.532Z,3.00
2023-04-15T08:16:35.304Z,3.10
2023-04-15T08:19:22.032Z,3.00
2023-04-15T08:25:00.753Z,3.30
2023-04-15T08:27:48.415Z,4.30
2023-04-15T08:30:35.898Z,3.20
2023-04-15T08:33:22.912Z,3.10
2023-04-15T08:36:10.230Z,3.10
2023-04-15T08:38:56.830Z,3.70
2023-04-15T08:41:52.072Z,2.80
2023-04-15T08:47:35.026Z,2.90
2023-04-15T08:50:24.234Z,3.20
2023-04-15T08:53:12.605Z,3.90
2023-04-15T08:56:03.104Z,3.10
2023-04-15T08:58:51.051Z,3.40
2023-04-15T09:01:38.709Z,2.90
2023-04-15T09:04:26.205Z,2.70
2023-04-15T09:07:12.798Z,3.00
2023-04-15T09:09:59.522Z,3.50
2023-04-15T09:12:46.838Z,2.60
2023-04-15T09:15:33.836Z,2.70
2023-04-15T09:18:31.512Z,3.00
2023-04-15T09:21:18.525Z,2.60
2023-04-15T09:24:06.067Z,2.60
2023-04-15T09:26:54.796Z,3.20
2023-04-15T09:29:42.978Z,2.70
2023-04-15T09:32:30.180Z,3.10
2023-04-15T09:35:17.501Z,2.50
2023-04-15T09:38:10.492Z,2.50
2023-04-15T09:40:58.494Z,2.80
2023-04-15T09:43:46.310Z,2.50
2023-04-15T09:46:46.466Z,2.40
2023-04-15T09:49:33.563Z,2.60
2023-04-15T09:52:20.790Z,2.60
2023-04-15T09:55:07.941Z,3.00
2023-04-15T09:57:55.125Z,3.40
2023-04-15T10:00:42.360Z,2.40
2023-04-15T10:03:37.026Z,3.70
2023-04-15T10:06:26.961Z,3.10
2023-04-15T10:09:14.007Z,2.60
2023-04-15T10:12:01.482Z,2.60
2023-04-15T10:14:53.624Z,2.60
2023-04-15T10:17:44.175Z,3.00
2023-04-15T10:20:31.636Z,3.00
2023-04-15T10:23:20.702Z,2.60
2023-04-15T10:26:08.437Z,2.10
2023-04-15T10:28:55.841Z,2.60
2023-04-15T10:31:44.691Z,3.00
2023-04-15T10:34:32.558Z,2.30
2023-04-15T10:37:33.307Z,2.50
2023-04-15T10:40:28.375Z,2.30
2023-04-15T10:43:27.176Z,2.60
2023-04-15T10:46:15.069Z,2.70
2023-04-15T10:49:26.100Z,2.60
2023-04-15T10:52:15.746Z,2.40
2023-04-15T10:55:16.742Z,2.50
2023-04-15T10:58:04.255Z,2.50
2023-04-15T11:00:53.532Z,2.80
2023-04-15T11:03:43.733Z,2.00
2023-04-15T11:06:45.371Z,2.00
2023-04-15T11:09:33.944Z,2.80
2023-04-15T11:12:20.739Z,2.40
2023-04-15T11:15:25.980Z,2.30
2023-04-15T11:18:16.797Z,2.40
2023-04-15T11:23:58.396Z,2.70
2023-04-15T11:26:45.104Z,2.00
2023-04-15T11:29:32.398Z,2.30
2023-04-15T11:32:19.248Z,2.40
2023-04-15T11:35:06.270Z,2.00
2023-04-15T11:37:53.366Z,2.00
2023-04-15T11:40:41.227Z,2.70
2023-04-15T11:43:31.922Z,2.20
2023-04-15T11:46:19.387Z,2.10
2023-04-15T11:51:53.677Z,1.90
2023-04-15T11:57:32.317Z,2.60
2023-04-15T12:00:20.993Z,2.00
2023-04-15T12:03:23.725Z,2.00
2023-04-15T12:06:20.968Z,2.50
2023-04-15T12:09:09.462Z,1.90
2023-04-15T12:11:58.626Z,1.90
2023-04-15T12:17:51.286Z,2.20
2023-04-15T12:20:45.680Z,2.40
2023-04-15T12:23:48.060Z,1.70
2023-04-15T12:26:46.865Z,1.90
2023-04-15T12:29:35.498Z,2.20
2023-04-15T12:38:06.386Z,1.80
2023-04-15T12:40:53.052Z,2.40
2023-04-15T12:43:39.863Z,2.10
2023-04-15T12:46:27.361Z,2.40
2023-04-15T12:49:20.294Z,2.00
2023-04-15T12:52:07.532Z,2.40
2023-04-15T12:54:54.442Z,1.90
2023-04-15T13:03:21.299Z,2.10
2023-04-15T13:06:08.538Z,2.50
2023-04-15T13:08:58.675Z,2.40
2023-04-15T13:11:45.932Z,2.20
2023-04-15T13:14:32.467Z,2.20
2023-04-15T13:17:20.619Z,1.70
2023-04-15T13:20:08.961Z,1.80
2023-04-15T13:22:55.747Z,1.50
2023-04-15T13:25:42.560Z,1.80
2023-04-15T13:28:29.770Z,2.60
2023-04-15T13:31:16.949Z,1.90
2023-04-15T13:34:03.928Z,2.10
2023-04-15T13:36:51.543Z,2.10
2023-04-15T13:39:38.471Z,1.60
2023-04-15T13:42:25.779Z,1.80
2023-04-15T13:45:12.694Z,1.90
2023-04-15T13:47:59.939Z,2.00
2023-04-15T13:50:47.036Z,2.00
2023-04-15T13:53:37.998Z,1.90
2023-04-15T13:56:26.491Z,1.70
2023-04-15T13:59:13.301Z,2.30
2023-04-15T14:02:00.219Z,2.20
2023-04-15T14:04:47.030Z,1.50
2023-04-15T14:07:33.998Z,1.90
2023-04-15T14:10:21.065Z,1.80
2023-04-15T14:13:07.857Z,2.20
2023-04-15T14:15:54.787Z,1.80
2023-04-15T14:18:44.260Z,1.40
2023-04-15T14:21:32.686Z,1.70
2023-04-15T14:24:19.307Z,2.00
2023-04-15T14:27:08.818Z,1.00
2023-04-15T14:29:55.900Z,2.00
2023-04-15T14:32:42.885Z,1.30
2023-04-15T14:35:30.161Z,1.50
2023-04-15T14:38:16.878Z,1.90
2023-04-15T14:41:04.667Z,1.40
2023-04-15T14:43:51.282Z,1.60
2023-04-15T14:46:40.619Z,1.40
2023-04-15T14:49:27.683Z,1.90
2023-04-15T14:52:14.385Z,1.50
2023-04-15T14:55:01.308Z,1.40
2023-04-15T14:57:48.562Z,2.10
2023-04-15T15:00:39.367Z,1.60
2023-04-15T15:03:26.766Z,1.10
2023-04-15T15:06:14.391Z,1.70
2023-04-15T15:09:02.162Z,1.80
2023-04-15T15:11:50.052Z,1.20
2023-04-15T15:14:37.065Z,1.70
2023-04-15T15:17:24.095Z,1.50
2023-04-15T15:20:11.645Z,1.70
2023-04-15T15:22:58.189Z,1.50
2023-04-15T15:25:46.467Z,1.50
2023-04-15T15:28:34.837Z,1.60
2023-04-15T15:31:21.864Z,2.00
2023-04-15T15:34:08.435Z,1.40
2023-04-15T15:36:56.158Z,1.80
2023-04-15T15:39:43.285Z,1.10
2023-04-15T15:42:32.410Z,1.80
2023-04-15T15:45:19.159Z,1.80
2023-04-15T15:48:07.009Z,2.10
2023-04-15T15:50:54.537Z,1.00
2023-04-15T15:53:41.545Z,2.00
2023-04-15T15:56:28.548Z,1.80
2023-04-15T15:59:17.210Z,1.30
2023-04-15T16:02:04.218Z,1.20
2023-04-15T16:04:52.730Z,1.40
2023-04-15T16:07:39.580Z,1.90
2023-04-15T16:10:27.061Z,1.50
2023-04-15T16:13:13.928Z,1.40
2023-04-15T16:16:00.772Z,1.40
2023-04-15T16:18:47.644Z,1.90
2023-04-15T16:21:34.988Z,1.70
2023-04-15T16:24:21.685Z,1.50
2023-04-15T16:27:08.381Z,1.10
2023-04-15T16:29:55.299Z,1.60
2023-04-15T16:32:42.627Z,1.60
2023-04-15T16:35:29.634Z,1.80
2023-04-15T16:38:16.503Z,2.00
2023-04-15T16:43:57.044Z,1.70
2023-04-15T16:46:44.073Z,1.60
2023-04-15T16:49:30.868Z,1.50
2023-04-15T16:52:17.892Z,1.50
2023-04-15T16:55:05.620Z,1.20
2023-04-15T16:58:02.104Z,1.50
2023-04-15T17:06:30.987Z,1.30
2023-04-15T17:09:17.555Z,1.20
2023-04-15T17:12:05.124Z,1.40
2023-04-15T17:14:52.442Z,0.80
2023-04-15T17:17:39.487Z,1.40
2023-04-15T17:20:26.875Z,1.50
2023-04-15T17:23:13.616Z,1.90
2023-04-15T17:28:52.432Z,0.90
2023-04-15T17:31:39.745Z,1.40
2023-04-15T17:34:28.694Z,1.20
2023-04-15T17:37:36.027Z,1.80
2023-04-15T17:40:23.025Z,1.80
2023-04-15T17:43:09.563Z,1.50
2023-04-15T17:45:58.213Z,1.20
2023-04-15T17:48:47.221Z,1.70
2023-04-15T17:51:33.962Z,1.10
2023-04-15T17:54:29.954Z,2.00
2023-04-15T17:57:16.900Z,1.30
2023-04-15T18:00:03.808Z,1.50
2023-04-15T18:02:59.887Z,2.30
2023-04-15T18:05:46.980Z,1.70
2023-04-15T18:08:33.791Z,1.90
2023-04-15T18:11:20.649Z,1.60
2023-04-15T18:14:07.900Z,1.40
2023-04-15T18:16:54.920Z,1.60
2023-04-15T18:19:42.253Z,1.90
2023-04-15T18:22:29.152Z,2.00
2023-04-15T18:25:16.442Z,2.20
2023-04-15T18:28:04.005Z,2.20
2023-04-15T18:30:51.216Z,2.20
2023-04-15T18:33:39.888Z,2.00
2023-04-15T18:36:26.852Z,2.30
2023-04-15T18:39:13.807Z,2.50
2023-04-15T18:42:02.064Z,2.80
2023-04-15T18:44:49.497Z,2.90
2023-04-15T18:47:36.129Z,2.70
2023-04-15T18:50:23.214Z,2.60
2023-04-15T18:53:10.640Z,2.70
2023-04-15T18:55:58.168Z,2.30
2023-04-15T18:59:27.900Z,2.30
2023-04-15T19:01:52.377Z,2.80
2023-04-15T19:04:39.391Z,3.00
2023-04-15T19:07:26.814Z,2.90
2023-04-15T19:10:13.406Z,3.00
2023-04-15T19:13:00.155Z,2.60
2023-04-15T19:15:47.033Z,2.80
2023-04-15T19:18:33.851Z,2.50
2023-04-15T19:21:20.763Z,2.20
2023-04-15T19:24:07.566Z,2.90
2023-04-15T19:26:54.592Z,3.00
2023-04-15T19:29:42.019Z,2.50
2023-04-15T19:32:29.134Z,3.00
2023-04-15T19:35:17.176Z,2.80
2023-04-15T19:38:05.623Z,2.80
2023-04-15T19:40:52.514Z,2.30
2023-04-15T19:43:39.540Z,2.80
2023-04-15T19:46:27.949Z,2.30
2023-04-15T19:49:15.222Z,2.60
2023-04-15T19:52:02.846Z,2.80
2023-04-15T19:54:49.567Z,2.50
2023-04-15T19:57:36.686Z,2.90
2023-04-15T20:00:23.703Z,2.70
2023-04-15T20:03:11.139Z,3.10
2023-04-15T20:05:58.356Z,2.90
2023-04-15T20:08:45.574Z,2.90
2023-04-15T20:12:47.751Z,3.00
2023-04-15T20:14:38.957Z,2.60
2023-04-15T20:17:26.101Z,2.70
2023-04-15T20:20:13.620Z,3.50
2023-04-15T20:23:00.326Z,2.60
2023-04-15T20:25:46.832Z,2.70
2023-04-15T20:28:34.436Z,2.60
2023-04-15T20:31:22.463Z,2.60
2023-04-15T20:34:11.828Z,2.50
2023-04-15T20:36:58.967Z,3.10
2023-04-15T20:39:45.976Z,2.90
2023-04-15T20:42:36.988Z,3.30
2023-04-15T20:45:23.895Z,3.00
2023-04-15T20:48:11.080Z,3.00
2023-04-15T20:50:58.005Z,2.60
2023-04-15T20:53:44.691Z,2.90
2023-04-15T20:56:31.364Z,2.50
2023-04-15T20:59:18.221Z,3.00
2023-04-15T21:02:05.196Z,3.10
2023-04-15T21:04:52.346Z,3.10
2023-04-15T21:07:39.312Z,3.20
2023-04-15T21:10:26.545Z,3.10
2023-04-15T21:13:15.507Z,3.50
2023-04-15T21:16:02.550Z,2.70
2023-04-15T21:18:49.426Z,3.00
2023-04-15T21:21:36.955Z,2.90
2023-04-15T21:24:24.090Z,2.80
2023-04-15T21:27:10.925Z,2.80
2023-04-15T21:29:58.002Z,2.80
2023-04-15T21:32:44.695Z,3.30
2023-04-15T21:35:31.941Z,2.90
2023-04-15T21:38:20.326Z,2.80
2023-04-15T21:41:09.964Z,3.60
2023-04-15T21:43:56.998Z,2.50
2023-04-15T21:46:45.773Z,3.30
2023-04-15T21:52:24.787Z,2.90
2023-04-15T21:55:11.697Z,2.90
2023-04-15T21:57:58.309Z,2.80
2023-04-15T22:00:45.851Z,2.70
2023-04-15T22:03:34.998Z,2.90
2023-04-15T22:06:22.439Z,3.00
2023-04-15T22:09:11.295Z,2.50
2023-04-15T22:11:59.834Z,3.20
2023-04-15T22:17:38.333Z,2.70
2023-04-15T22:20:25.379Z,2.80
2023-04-15T22:23:12.163Z,2.30
2023-04-15T22:25:59.928Z,2.80
2023-04-15T22:28:46.640Z,2.80
2023-04-15T22:31:33.471Z,3.10
2023-04-15T22:34:22.032Z,3.10
2023-04-15T22:37:08.812Z,2.70
2023-04-15T22:39:56.030Z,3.10
2023-04-15T22:42:42.748Z,3.30
2023-04-15T22:45:29.452Z,3.20
2023-04-15T22:48:17.986Z,3.30
2023-04-15T22:51:06.404Z,3.10
2023-04-15T22:53:54.084Z,3.10
2023-04-15T22:56:40.995Z,2.80
2023-04-15T22:59:27.527Z,2.80
2023-04-15T23:02:14.379Z,2.80
2023-04-15T23:05:12.442Z,2.90
2023-04-15T23:08:00.328Z,2.60
2023-04-15T23:10:47.252Z,2.60
2023-04-15T23:13:36.061Z,2.70
2023-04-15T23:16:23.283Z,2.70
2023-04-15T23:19:10.434Z,2.70
2023-04-15T23:21:57.758Z,2.70
2023-04-15T23:24:44.402Z,2.90
2023-04-15T23:27:31.310Z,2.70
2023-04-15T23:30:18.524Z,2.70
2023-04-15T23:33:05.429Z,3.10
2023-04-15T23:35:52.645Z,2.60
2023-04-15T23:38:39.751Z,2.80
2023-04-15T23:41:26.828Z,2.40
2023-04-15T23:44:13.369Z,2.70
2023-04-15T23:47:00.379Z,3.10
2023-04-15T23:49:47.822Z,2.80
2023-04-15T23:52:35.254Z,2.70
2023-04-15T23:55:22.472Z,3.10
2023-04-15T23:58:10.080Z,2.70
